Time;durP1;ratioP1;P1;durP2;ratioP2;P2;SDS_P1;SDS_P2;PMS_P1;PMS_P2;Temp;Humidity;BMP_temperature;BMP_pressure;BME280_temperature;BME280_humidity;BME280_pressure;Samples;Min_cycle;Max_cycle;Signal;HPM_P1;HPM_P2
2022/09/30 00:00:32;;;;;;;5.58;5.08;;;;;;;14.85;100.00;98617.32;1810440;79;21003;-63
2022/09/30 00:03:00;;;;;;;6.42;4.65;;;;;;;14.87;100.00;98614.96;1810380;79;21011;-64
2022/09/30 00:05:26;;;;;;;5.60;4.35;;;;;;;14.89;100.00;98610.92;1810390;79;21136;-64
2022/09/30 00:07:53;;;;;;;8.48;5.47;;;;;;;14.90;100.00;98616.52;1810275;79;20955;-64
2022/09/30 00:10:20;;;;;;;9.33;5.28;;;;;;;14.90;100.00;98612.13;1810398;78;20995;-63
2022/09/30 00:12:49;;;;;;;5.42;4.92;;;;;;;14.89;100.00;98603.91;1739428;82;20994;-64
2022/09/30 00:15:18;;;;;;;6.05;4.60;;;;;;;14.92;100.00;98606.31;1740347;81;20994;-63
2022/09/30 00:17:45;;;;;;;10.68;5.05;;;;;;;14.91;100.00;98600.70;1769736;81;21412;-64
2022/09/30 00:20:13;;;;;;;6.30;4.78;;;;;;;14.90;100.00;98600.81;1769563;81;21002;-64
2022/09/30 00:22:41;;;;;;;7.30;5.05;;;;;;;14.87;100.00;98604.48;1739870;81;20993;-63
2022/09/30 00:25:08;;;;;;;5.95;4.90;;;;;;;14.86;100.00;98608.05;1769726;81;21425;-64
2022/09/30 00:27:35;;;;;;;5.03;4.30;;;;;;;14.86;100.00;98608.05;1769568;81;21120;-64
2022/09/30 00:30:02;;;;;;;7.62;5.50;;;;;;;14.84;100.00;98608.63;1769731;81;21142;-64
2022/09/30 00:32:28;;;;;;;7.92;5.92;;;;;;;14.81;100.00;98611.00;1739410;82;21041;-63
2022/09/30 00:34:55;;;;;;;8.93;5.92;;;;;;;14.77;100.00;98616.12;1769629;81;21001;-64
2022/09/30 00:37:21;;;;;;;7.45;5.17;;;;;;;14.75;100.00;98623.71;1769731;81;21083;-63
2022/09/30 00:39:48;;;;;;;6.58;5.75;;;;;;;14.73;100.00;98622.98;1769602;81;20946;-64
2022/09/30 00:42:18;;;;;;;6.08;5.42;;;;;;;14.72;100.00;98623.92;1769940;81;21885;-64
2022/09/30 00:45:05;;;;;;;8.38;6.42;;;;;;;14.71;100.00;98628.80;1769560;81;20953;-63
2022/09/30 00:47:47;;;;;;;7.10;6.15;;;;;;;14.68;100.00;98620.69;1739414;81;21029;-63
2022/09/30 00:50:47;;;;;;;7.87;5.53;;;;;;;14.63;100.00;98629.80;1768582;81;20961;-63
2022/09/30 00:53:36;;;;;;;6.22;5.62;;;;;;;14.63;100.00;98629.80;1739508;82;21422;-63
2022/09/30 00:56:17;;;;;;;6.90;6.10;;;;;;;14.63;100.00;98639.80;1769651;81;21217;-63
2022/09/30 00:58:56;;;;;;;8.25;6.83;;;;;;;14.52;100.00;98648.06;1739311;82;20935;-63
2022/09/30 01:01:22;;;;;;;7.15;6.17;;;;;;;14.52;100.00;98648.06;1739443;81;21021;-63
2022/09/30 01:04:05;;;;;;;7.25;6.05;;;;;;;14.44;100.00;98647.28;1739443;82;21158;-63
2022/09/30 01:06:32;;;;;;;;;;;;;;;14.39;100.00;98651.95;1760629;81;21149;-63
2022/09/30 01:08:58;;;;;;;8.88;6.55;;;;;;;14.35;100.00;98659.20;1769676;81;21142;-64
2022/09/30 01:11:27;;;;;;;8.50;6.15;;;;;;;14.29;100.00;98664.02;1703206;81;21089;-63
2022/09/30 01:13:58;;;;;;;8.60;5.92;;;;;;;14.26;100.00;98664.23;1810684;79;20950;-63
2022/09/30 01:16:51;;;;;;;8.58;6.35;;;;;;;14.23;100.00;98665.27;1810711;79;20986;-63
2022/09/30 01:19:43;;;;;;;;;;;;;;;14.20;100.00;98668.09;1812027;79;20970;-63
2022/09/30 01:22:22;;;;;;;8.55;7.60;;;;;;;14.18;100.00;98667.86;1810449;79;21240;-63
2022/09/30 01:25:16;;;;;;;7.45;6.08;;;;;;;14.12;100.00;98676.48;1773941;79;21307;-63
2022/09/30 01:28:00;;;;;;;6.62;6.05;;;;;;;14.05;100.00;98674.37;1810298;79;21407;-64
2022/09/30 01:31:02;;;;;;;8.48;6.92;;;;;;;13.93;100.00;98673.45;1809847;79;20986;-63
2022/09/30 01:33:56;;;;;;;11.63;7.65;;;;;;;13.93;100.00;98673.45;1810305;79;21609;-62
2022/09/30 01:36:37;;;;;;;8.60;6.78;;;;;;;13.90;100.00;98675.42;1810503;79;21597;-64
2022/09/30 01:39:51;;;;;;;7.40;6.15;;;;;;;13.84;100.00;98664.91;1810505;79;20955;-63
2022/09/30 01:42:40;;;;;;;8.28;7.42;;;;;;;13.83;100.00;98671.55;1810456;79;21077;-63
2022/09/30 01:45:21;;;;;;;9.85;8.18;;;;;;;13.79;100.00;98672.21;1800297;79;20935;-63
2022/09/30 01:47:59;;;;;;;7.78;7.08;;;;;;;13.75;100.00;98675.99;1810423;79;20935;-62
2022/09/30 01:50:37;;;;;;;7.75;6.45;;;;;;;13.72;100.00;98692.72;1809610;79;22057;-62
2022/09/30 01:53:25;;;;;;;9.75;7.35;;;;;;;13.67;100.00;98675.66;1798670;79;20923;-64
2022/09/30 01:56:02;;;;;;;11.50;7.62;;;;;;;13.62;100.00;98675.95;1810432;79;21030;-64
2022/09/30 01:59:01;;;;;;;6.92;6.30;;;;;;;13.59;100.00;98686.61;1810561;79;21022;-63
2022/09/30 02:01:34;;;;;;;8.08;6.72;;;;;;;13.54;100.00;98704.38;1810510;79;20939;-63
2022/09/30 02:04:06;;;;;;;9.25;8.05;;;;;;;13.50;100.00;98702.91;1810669;79;26728;-63
2022/09/30 02:06:37;;;;;;;12.18;7.78;;;;;;;13.46;100.00;98697.50;1810577;79;21038;-63
2022/09/30 02:09:17;;;;;;;8.05;7.22;;;;;;;13.43;100.00;98697.70;1747023;82;21477;-63
2022/09/30 02:11:43;;;;;;;9.55;7.47;;;;;;;13.38;100.00;98699.80;1769437;81;21002;-63
2022/09/30 02:14:25;;;;;;;7.10;6.40;;;;;;;13.34;100.00;98705.69;1746999;82;21002;-63
2022/09/30 02:17:15;;;;;;;8.70;7.90;;;;;;;13.32;100.00;98711.94;1727139;81;21190;-63
2022/09/30 02:19:45;;;;;;;10.30;7.75;;;;;;;13.25;100.00;98702.34;1769532;81;21057;-63
2022/09/30 02:22:22;;;;;;;10.85;7.25;;;;;;;13.23;100.00;98699.45;1781464;79;21490;-63
2022/09/30 02:24:53;;;;;;;7.65;6.35;;;;;;;13.19;100.00;98703.23;1810744;79;21447;-63
2022/09/30 02:27:26;;;;;;;10.40;7.60;;;;;;;13.18;100.00;98706.77;1810453;79;21564;-63
2022/09/30 02:29:56;;;;;;;9.08;8.18;;;;;;;13.14;100.00;98711.31;1747002;82;21783;-63
2022/09/30 02:32:34;;;;;;;10.63;8.28;;;;;;;13.11;100.00;98717.56;1769473;81;21050;-63
2022/09/30 02:35:15;;;;;;;10.63;8.03;;;;;;;13.09;100.00;98715.52;1805778;79;20990;-63
2022/09/30 02:37:55;;;;;;;7.97;6.55;;;;;;;13.08;100.00;98715.14;1810491;79;21042;-63
2022/09/30 02:40:42;;;;;;;8.58;6.83;;;;;;;13.06;100.00;98721.39;1810559;79;20963;-63
2022/09/30 02:43:09;;;;;;;9.10;7.97;;;;;;;13.03;100.00;98721.58;1810505;79;21224;-63
2022/09/30 02:45:54;;;;;;;9.15;7.28;;;;;;;12.98;100.00;98717.98;1810325;79;20940;-62
2022/09/30 02:48:43;;;;;;;7.10;6.40;;;;;;;12.96;100.00;98719.02;1737169;79;21645;-62
2022/09/30 02:51:42;;;;;;;9.23;7.65;;;;;;;12.95;100.00;98723.39;1807865;79;21006;-63
2022/09/30 02:54:20;;;;;;;8.55;7.65;;;;;;;12.93;100.00;98728.34;1810546;79;21042;-63
2022/09/30 02:57:05;;;;;;;7.40;6.75;;;;;;;12.89;100.00;98718.55;1810456;79;21784;-63
2022/09/30 02:59:32;;;;;;;7.40;6.70;;;;;;;12.87;100.00;98724.33;1746820;82;21053;-63
2022/09/30 03:01:59;;;;;;;9.33;7.62;;;;;;;12.85;100.00;98727.97;1769413;81;20954;-63
2022/09/30 03:04:28;;;;;;;9.68;8.78;;;;;;;12.82;100.00;98734.67;1810408;79;21451;-63
2022/09/30 03:06:55;;;;;;;13.53;9.30;;;;;;;12.80;100.00;98739.98;1810495;79;20955;-63
2022/09/30 03:09:25;;;;;;;8.03;7.22;;;;;;;12.74;100.00;98734.70;1810466;79;21128;-63
2022/09/30 03:12:01;;;;;;;7.80;7.10;;;;;;;12.73;100.00;98737.41;1811273;79;20979;-63
2022/09/30 03:14:54;;;;;;;9.33;7.90;;;;;;;12.70;100.00;98728.45;1759180;81;21002;-63
2022/09/30 03:17:59;;;;;;;9.85;8.45;;;;;;;12.67;100.00;98732.55;1813699;79;20990;-63
2022/09/30 03:20:53;;;;;;;9.38;8.48;;;;;;;12.60;100.00;98745.13;1813576;79;20967;-63
2022/09/30 03:23:35;;;;;;;10.18;7.83;;;;;;;12.53;100.00;98749.06;1813728;79;21825;-63
2022/09/30 03:26:48;;;;;;;10.48;8.28;;;;;;;12.47;100.00;98749.89;1813463;79;21037;-63
2022/09/30 03:29:35;;;;;;;13.50;9.98;;;;;;;12.39;100.00;98746.42;1813452;79;20955;-62
2022/09/30 03:32:23;;;;;;;8.80;7.78;;;;;;;12.33;100.00;98756.78;1759632;81;20982;-63
2022/09/30 03:35:13;;;;;;;10.05;6.15;;;;;;;12.28;100.00;98761.89;1763541;81;21526;-63
2022/09/30 03:37:54;;;;;;;5.20;4.75;;;;;;;12.25;100.00;98759.00;1763214;81;21153;-63
2022/09/30 03:40:28;;;;;;;5.10;4.70;;;;;;;12.25;100.00;98755.55;1758588;79;21458;-63
2022/09/30 03:43:09;;;;;;;6.97;5.97;;;;;;;12.21;100.00;98753.58;1813515;79;20951;-63
2022/09/30 03:45:47;;;;;;;10.30;7.40;;;;;;;12.20;100.00;98755.81;1813366;79;21077;-63
2022/09/30 03:48:14;;;;;;;8.03;5.97;;;;;;;12.18;100.00;98751.66;1813533;79;20947;-63
2022/09/30 03:50:40;;;;;;;17.00;5.30;;;;;;;12.17;100.00;98747.36;1813621;79;21141;-63
2022/09/30 03:53:11;;;;;;;23.95;6.92;;;;;;;12.13;100.00;98748.00;1813446;79;20947;-63
2022/09/30 03:55:49;;;;;;;18.55;7.50;;;;;;;12.08;100.00;98748.27;1813629;79;21411;-63
2022/09/30 03:58:17;;;;;;;13.13;4.92;;;;;;;12.06;100.00;98752.73;1762926;81;21445;-65
2022/09/30 04:00:50;;;;;;;4.80;4.17;;;;;;;12.07;100.00;98758.32;1813638;79;20951;-66
2022/09/30 04:03:19;;;;;;;34.03;5.25;;;;;;;12.10;100.00;98770.80;1813662;79;21068;-66
2022/09/30 04:05:47;;;;;;;29.95;7.62;;;;;;;12.11;100.00;98769.41;1763290;81;20930;-63
2022/09/30 04:08:15;;;;;;;22.65;5.67;;;;;;;12.11;100.00;98765.50;1763177;81;21013;-64
2022/09/30 04:10:42;;;;;;;16.65;5.20;;;;;;;12.09;100.00;98767.36;1813544;79;21532;-63
2022/09/30 04:13:10;;;;;;;7.22;4.55;;;;;;;12.07;100.00;98762.69;1811063;79;21002;-63
2022/09/30 04:15:39;;;;;;;8.08;5.25;;;;;;;12.08;100.00;98759.16;1810584;79;21141;-63
2022/09/30 04:18:07;;;;;;;12.82;7.30;;;;;;;12.11;100.00;98761.59;1746832;82;20942;-64
2022/09/30 04:20:34;;;;;;;76.75;8.13;;;;;;;12.14;100.00;98767.09;1769382;81;20946;-63
2022/09/30 04:23:02;;;;;;;13.05;6.58;;;;;;;12.18;100.00;98769.90;1810406;79;21482;-65
2022/09/30 04:25:30;;;;;;;11.80;5.37;;;;;;;12.21;100.00;98774.44;1810447;79;20995;-64
2022/09/30 04:27:57;;;;;;;45.50;6.58;;;;;;;12.24;100.00;98774.27;1810571;79;21883;-64
2022/09/30 04:30:23;;;;;;;39.88;7.12;;;;;;;12.25;100.00;98786.38;1810661;79;21037;-64
2022/09/30 04:32:50;;;;;;;58.98;8.53;;;;;;;12.30;100.00;98793.93;1810589;79;21030;-64
2022/09/30 04:35:17;;;;;;;14.40;6.80;;;;;;;12.34;100.00;98797.58;1810379;79;21418;-64
2022/09/30 04:37:44;;;;;;;15.85;5.35;;;;;;;12.41;100.00;98797.56;1810335;79;21014;-64
2022/09/30 04:40:11;;;;;;;49.30;6.45;;;;;;;12.45;100.00;98805.21;1746825;82;22157;-64
2022/09/30 04:42:39;;;;;;;28.42;6.20;;;;;;;12.45;100.00;98813.03;1769270;81;20958;-64
2022/09/30 04:45:09;;;;;;;20.08;6.55;;;;;;;12.48;100.00;98812.39;1746823;82;20944;-64
2022/09/30 04:47:36;;;;;;;8.90;7.45;;;;;;;12.57;100.00;98822.76;1769436;81;21014;-65
2022/09/30 04:50:04;;;;;;;11.65;7.50;;;;;;;12.66;100.00;98824.33;1746768;81;21466;-64
2022/09/30 04:52:31;;;;;;;20.68;7.17;;;;;;;12.72;100.00;98823.97;1769287;81;21718;-64
2022/09/30 04:54:58;;;;;;;11.50;7.10;;;;;;;12.76;100.00;98837.22;1746685;81;20946;-64
2022/09/30 04:57:26;;;;;;;9.83;6.85;;;;;;;12.82;100.00;98836.45;1769417;81;20966;-64
2022/09/30 04:59:52;;;;;;;11.00;6.42;;;;;;;12.88;100.00;98838.70;1810449;79;20975;-65
2022/09/30 05:02:20;;;;;;;9.73;6.20;;;;;;;12.90;100.00;98837.67;1746895;82;21037;-65
2022/09/30 05:04:47;;;;;;;15.55;8.55;;;;;;;12.94;100.00;98832.64;1742283;82;21935;-64
2022/09/30 05:07:13;;;;;;;26.73;9.58;;;;;;;13.01;100.00;98831.31;1805034;79;20982;-65
2022/09/30 05:09:40;;;;;;;24.23;11.50;;;;;;;13.05;100.00;98833.28;1807051;79;21052;-64
2022/09/30 05:12:07;;;;;;;24.43;10.55;;;;;;;13.09;100.00;98845.22;1779155;79;21167;-66
2022/09/30 05:14:35;;;;;;;20.40;9.05;;;;;;;13.12;100.00;98835.89;1779782;80;21485;-64
2022/09/30 05:17:04;;;;;;;33.25;10.68;;;;;;;13.19;100.00;98846.84;1779569;79;21232;-68
2022/09/30 05:19:31;;;;;;;16.85;9.40;;;;;;;13.26;100.00;98849.42;1778740;80;21091;-64
2022/09/30 05:21:58;;;;;;;22.10;9.45;;;;;;;13.35;100.00;98847.09;1783354;77;21374;-65
2022/09/30 05:24:27;;;;;;;12.58;7.97;;;;;;;13.49;100.00;98854.05;1792820;79;21035;-65
2022/09/30 05:26:54;;;;;;;14.68;7.58;;;;;;;13.62;100.00;98853.64;1778106;80;21087;-65
2022/09/30 05:29:21;;;;;;;14.07;8.20;;;;;;;13.73;100.00;98851.20;1778108;79;21850;-66
2022/09/30 05:31:48;;;;;;;14.33;8.83;;;;;;;13.88;100.00;98855.06;1778344;80;21542;-65
2022/09/30 05:34:15;;;;;;;20.35;10.25;;;;;;;13.88;100.00;98855.06;1806450;79;21028;-70
2022/09/30 05:36:43;;;;;;;14.33;9.10;;;;;;;13.94;100.00;98854.67;1810644;78;21449;-70
2022/09/30 05:39:10;;;;;;;13.35;7.03;;;;;;;13.98;100.00;98866.14;1809712;77;21086;-67
2022/09/30 05:41:37;;;;;;;27.65;7.92;;;;;;;14.06;100.00;98862.55;1810085;79;21292;-67
2022/09/30 05:44:07;;;;;;;20.57;8.98;;;;;;;14.11;100.00;98864.87;1776618;79;21000;-66
2022/09/30 05:46:50;;;;;;;15.98;9.30;;;;;;;14.19;100.00;98874.34;1751549;81;21002;-65
2022/09/30 05:49:16;;;;;;;18.75;11.95;;;;;;;14.28;100.00;98872.91;1751061;81;21066;-68
2022/09/30 05:51:43;;;;;;;20.75;8.73;;;;;;;14.46;100.00;98873.02;1750376;81;20886;-67
2022/09/30 05:54:11;;;;;;;20.30;9.33;;;;;;;14.46;100.00;98873.02;1726402;81;22240;-65
2022/09/30 05:56:38;;;;;;;29.30;9.33;;;;;;;14.57;100.00;98878.39;1750981;81;21090;-67
2022/09/30 05:59:05;;;;;;;36.45;12.15;;;;;;;14.69;100.00;98883.27;1751017;81;21148;-66
2022/09/30 06:01:32;;;;;;;20.95;11.50;;;;;;;14.74;100.00;98881.18;1751619;81;21034;-65
2022/09/30 06:04:00;;;;;;;21.20;10.13;;;;;;;14.79;100.00;98884.30;1750627;81;21108;-66
2022/09/30 06:06:27;;;;;;;11.80;9.55;;;;;;;14.87;100.00;98883.79;1750663;81;21249;-69
2022/09/30 06:08:54;;;;;;;23.20;11.15;;;;;;;15.03;100.00;98892.27;1751092;81;21058;-67
2022/09/30 06:11:23;;;;;;;19.00;10.45;;;;;;;15.15;100.00;98887.04;1761802;81;21099;-65
2022/09/30 06:13:51;;;;;;;29.02;9.30;;;;;;;15.20;100.00;98888.48;1823032;78;20980;-66
2022/09/30 06:16:18;;;;;;;11.65;8.70;;;;;;;15.21;100.00;98888.37;1823513;78;21550;-65
2022/09/30 06:18:47;;;;;;;33.18;10.60;;;;;;;15.19;100.00;98897.31;1822889;78;21240;-65
2022/09/30 06:21:15;;;;;;;21.23;14.45;;;;;;;15.22;100.00;98894.45;1822730;78;21464;-71
2022/09/30 06:23:42;;;;;;;18.85;12.25;;;;;;;15.34;100.00;98892.30;1823239;77;20992;-68
2022/09/30 06:26:13;;;;;;;27.35;11.38;;;;;;;15.48;100.00;98896.09;1798407;78;21066;-65
2022/09/30 06:28:42;;;;;;;24.07;9.60;;;;;;;15.59;100.00;98909.80;1823314;78;21024;-71
2022/09/30 06:31:10;;;;;;;27.95;9.78;;;;;;;15.62;100.00;98911.70;1798370;78;21137;-65
2022/09/30 06:33:38;;;;;;;25.50;10.50;;;;;;;15.64;100.00;98914.22;1822861;78;21696;-66
2022/09/30 06:36:06;;;;;;;24.72;9.08;;;;;;;15.63;100.00;98924.34;1823448;77;21000;-65
2022/09/30 06:38:36;;;;;;;20.82;7.58;;;;;;;15.62;100.00;98928.75;1822398;77;21051;-67
2022/09/30 06:41:02;;;;;;;15.05;8.88;;;;;;;15.58;100.00;98927.31;1822518;78;22153;-68
2022/09/30 06:43:29;;;;;;;16.15;9.40;;;;;;;15.56;100.00;98927.05;1822796;78;21350;-72
2022/09/30 06:45:57;;;;;;;11.22;10.00;;;;;;;15.59;100.00;98938.13;1821784;77;21012;-67
2022/09/30 06:48:24;;;;;;;13.75;10.28;;;;;;;15.68;100.00;98935.34;1821796;77;21161;-66
2022/09/30 06:50:52;;;;;;;13.08;10.05;;;;;;;15.80;100.00;98932.68;1823062;77;21015;-64
2022/09/30 06:53:19;;;;;;;13.72;9.20;;;;;;;15.97;100.00;98926.25;1822849;78;20973;-66
2022/09/30 06:55:46;;;;;;;20.12;12.58;;;;;;;16.22;100.00;98942.81;1764510;80;21130;-65
2022/09/30 06:58:16;;;;;;;16.73;11.10;;;;;;;16.43;100.00;98947.81;1823079;78;21032;-64
2022/09/30 07:00:42;;;;;;;16.93;10.70;;;;;;;16.65;100.00;98947.09;1823116;78;21027;-67
2022/09/30 07:03:22;;;;;;;25.90;11.20;;;;;;;16.88;100.00;98952.77;1824583;77;20956;-65
2022/09/30 07:05:56;;;;;;;11.70;8.63;;;;;;;17.07;100.00;98956.16;1822517;78;20984;-66
2022/09/30 07:08:25;;;;;;;16.17;9.60;;;;;;;17.24;100.00;98959.64;1822971;78;21276;-64
2022/09/30 07:10:52;;;;;;;14.87;11.75;;;;;;;17.36;100.00;98965.29;1798238;78;21043;-64
2022/09/30 07:13:21;;;;;;;17.25;10.75;;;;;;;17.51;100.00;98963.25;1822978;77;21145;-65
2022/09/30 07:15:51;;;;;;;11.10;9.73;;;;;;;17.70;100.00;98965.31;1822982;78;21027;-65
2022/09/30 07:18:21;;;;;;;12.63;8.78;;;;;;;17.84;100.00;98968.52;1822176;77;21066;-68
2022/09/30 07:20:50;;;;;;;10.00;9.00;;;;;;;18.00;100.00;98967.30;1822208;78;21386;-67
2022/09/30 07:23:17;;;;;;;16.37;10.82;;;;;;;18.11;100.00;98965.97;1789669;78;21097;-64
2022/09/30 07:25:59;;;;;;;11.78;9.33;;;;;;;18.22;100.00;98968.08;1825058;78;21015;-64
2022/09/30 07:28:32;;;;;;;10.40;9.35;;;;;;;18.42;100.00;98964.31;1757346;79;21081;-69
2022/09/30 07:30:59;;;;;;;17.20;11.38;;;;;;;18.66;100.00;98962.34;1812630;78;21036;-75
2022/09/30 07:33:31;;;;;;;20.72;9.90;;;;;;;18.84;100.00;98961.29;1815347;77;21705;-71
2022/09/30 07:35:59;;;;;;;17.55;9.10;;;;;;;18.95;100.00;98959.09;1792092;79;20975;-68
2022/09/30 07:38:29;;;;;;;15.85;9.00;;;;;;;18.96;100.00;98964.23;1816263;79;20986;-68
2022/09/30 07:40:59;;;;;;;12.15;8.58;;;;;;;18.95;100.00;98973.10;1816119;79;21116;-66
2022/09/30 07:43:37;;;;;;;22.30;11.55;;;;;;;18.84;100.00;98979.25;1816245;77;21619;-65
2022/09/30 07:46:10;;;;;;;31.15;11.05;;;;;;;18.70;100.00;98982.68;1815242;78;21359;-71
2022/09/30 07:48:50;;;;;;;15.40;9.68;;;;;;;18.61;100.00;98986.06;1815938;79;20993;-68
2022/09/30 07:51:35;;;;;;;13.75;9.75;;;;;;;18.47;100.00;98986.69;1811524;79;21090;-70
2022/09/30 07:54:07;;;;;;;15.32;9.35;;;;;;;18.35;100.00;98983.75;1815993;79;21072;-67
2022/09/30 07:56:33;;;;;;;14.43;10.05;;;;;;;18.24;100.00;98976.70;1804689;77;21448;-67
2022/09/30 07:59:00;;;;;;;11.90;9.35;;;;;;;18.21;100.00;98977.42;1803052;78;21320;-65
2022/09/30 08:01:30;;;;;;;13.55;10.13;;;;;;;18.24;100.00;98974.55;1822725;77;21015;-68
2022/09/30 08:04:00;;;;;;;16.95;11.73;;;;;;;18.26;100.00;98984.47;1822866;78;21063;-67
2022/09/30 08:06:29;;;;;;;15.00;9.83;;;;;;;18.24;100.00;98985.07;1822614;78;20996;-68
2022/09/30 08:08:57;;;;;;;16.25;9.70;;;;;;;18.27;100.00;98998.47;1823176;78;21514;-65
2022/09/30 08:11:25;;;;;;;21.50;10.43;;;;;;;18.29;100.00;98986.86;1823157;77;21320;-65
2022/09/30 08:13:55;;;;;;;11.15;9.45;;;;;;;18.30;100.00;98985.91;1822545;78;21008;-66
2022/09/30 08:16:23;;;;;;;16.85;9.10;;;;;;;18.34;100.00;98983.39;1823101;78;21520;-70
2022/09/30 08:18:57;;;;;;;11.55;9.75;;;;;;;18.36;100.00;98978.00;1822591;78;20985;-68
2022/09/30 08:21:25;;;;;;;15.40;9.45;;;;;;;18.33;100.00;98979.56;1764378;81;21080;-67
2022/09/30 08:23:55;;;;;;;18.37;9.28;;;;;;;18.33;100.00;98984.83;1822824;77;21263;-66
2022/09/30 08:26:23;;;;;;;13.10;9.40;;;;;;;18.37;100.00;98985.77;1822770;78;21016;-66
2022/09/30 08:28:50;;;;;;;11.05;8.43;;;;;;;18.48;100.00;98987.05;1764404;80;21004;-72
2022/09/30 08:31:20;;;;;;;19.37;9.30;;;;;;;18.62;100.00;98975.88;1822615;78;20989;-66
2022/09/30 08:33:47;;;;;;;12.33;10.05;;;;;;;18.73;100.00;98984.59;1822100;77;22030;-67
2022/09/30 08:36:22;;;;;;;8.88;7.97;;;;;;;18.85;99.78;98984.04;1822660;78;21174;-66
2022/09/30 08:38:51;;;;;;;10.45;8.00;;;;;;;18.98;98.89;98980.76;1822684;78;20999;-66
2022/09/30 08:41:58;;;;;;;13.43;8.03;;;;;;;19.12;98.29;98979.11;1816381;77;21477;-69
2022/09/30 08:44:46;;;;;;;10.38;8.85;;;;;;;19.27;97.50;98983.08;1812089;79;21207;-68
2022/09/30 08:47:28;;;;;;;12.47;9.90;;;;;;;19.39;96.63;98986.94;1763861;80;21131;-67
2022/09/30 08:50:36;;;;;;;10.40;9.15;;;;;;;19.53;96.25;98987.48;1779321;80;21934;-65
2022/09/30 08:53:18;;;;;;;13.25;9.25;;;;;;;19.70;94.93;98989.98;1738580;82;21652;-77
2022/09/30 08:55:51;;;;;;;14.45;8.45;;;;;;;19.79;94.09;98996.25;1735934;82;21167;-64
2022/09/30 08:58:33;;;;;;;14.00;7.80;;;;;;;19.90;94.48;98997.48;1737287;82;21043;-68
2022/09/30 09:01:26;;;;;;;19.42;8.68;;;;;;;20.03;93.69;98993.28;1737229;81;38167;-65
2022/09/30 09:03:53;;;;;;;22.17;8.10;;;;;;;20.15;92.26;98991.73;1737388;81;21245;-64
2022/09/30 09:06:34;;;;;;;12.65;9.80;;;;;;;20.27;91.68;98991.12;1737220;82;21078;-67
2022/09/30 09:09:31;;;;;;;10.35;8.35;;;;;;;20.39;90.09;98988.72;1737145;81;21410;-66
2022/09/30 09:12:23;;;;;;;12.10;8.93;;;;;;;20.47;89.33;98988.89;1737504;82;21026;-68
2022/09/30 09:15:01;;;;;;;14.63;7.42;;;;;;;20.55;88.08;98992.17;1736846;82;21102;-65
2022/09/30 09:17:34;;;;;;;8.65;7.40;;;;;;;20.58;87.64;98994.55;1737441;82;21222;-68
2022/09/30 09:20:13;;;;;;;8.58;7.58;;;;;;;20.60;87.25;99003.97;1732504;81;21097;-66
2022/09/30 09:22:42;;;;;;;13.43;7.70;;;;;;;20.61;87.15;99000.84;1737046;82;21022;-68
2022/09/30 09:25:15;;;;;;;17.95;8.68;;;;;;;20.69;86.48;99000.16;1737709;81;21050;-68
2022/09/30 09:28:03;;;;;;;9.80;8.65;;;;;;;20.73;86.26;98998.92;1737757;81;21521;-68
2022/09/30 09:30:38;;;;;;;13.22;8.08;;;;;;;20.78;86.31;99000.18;1738037;80;21128;-66
2022/09/30 09:33:21;;;;;;;11.78;7.87;;;;;;;20.81;86.35;98997.23;1731355;82;21032;-68
2022/09/30 09:36:14;;;;;;;8.85;7.95;;;;;;;20.83;85.59;99001.06;1737722;82;21084;-68
2022/09/30 09:39:16;;;;;;;10.55;7.45;;;;;;;20.83;85.02;99000.57;1740149;82;21040;-68
2022/09/30 09:42:03;;;;;;;10.40;8.18;;;;;;;20.83;85.24;99006.34;1739877;81;21075;-65
2022/09/30 09:44:53;;;;;;;16.62;8.40;;;;;;;20.90;85.46;99012.27;1739594;82;21370;-67
2022/09/30 09:47:20;;;;;;;9.53;7.50;;;;;;;20.97;84.66;99010.74;1750785;80;20957;-67
2022/09/30 09:50:03;;;;;;;10.68;7.60;;;;;;;21.03;84.29;99009.32;1822719;77;21050;-71
2022/09/30 09:52:54;;;;;;;8.60;7.70;;;;;;;21.09;83.57;99010.09;1822410;78;21050;-67
2022/09/30 09:55:21;;;;;;;23.73;19.65;;;;;;;21.07;82.63;99009.88;1764716;81;21071;-65
2022/09/30 09:58:05;;;;;;;12.05;10.80;;;;;;;21.07;82.15;99007.23;1822398;78;21095;-66
2022/09/30 10:03:22;;;;;;;11.12;6.53;;;;;;;21.07;80.30;99017.81;1823132;78;21046;-69
2022/09/30 10:06:06;;;;;;;7.35;5.50;;;;;;;21.08;79.72;99018.16;1821913;78;21075;-67
2022/09/30 10:08:41;;;;;;;9.93;8.28;;;;;;;21.13;79.17;99014.61;1822452;78;21000;-66
2022/09/30 10:11:22;;;;;;;9.28;6.08;;;;;;;21.18;77.68;99015.84;1762884;81;21306;-66
2022/09/30 10:13:49;;;;;;;6.60;6.00;;;;;;;21.26;78.44;99014.69;1821740;77;21032;-73
2022/09/30 10:16:42;;;;;;;8.75;5.87;;;;;;;21.34;79.00;99016.63;1764867;81;21071;-68
2022/09/30 10:19:24;;;;;;;8.30;6.00;;;;;;;21.43;78.80;99017.08;1819422;78;21044;-70
2022/09/30 10:22:13;;;;;;;7.10;5.60;;;;;;;21.53;77.33;99014.42;1812748;78;21017;-72
2022/09/30 10:24:40;;;;;;;7.40;5.92;;;;;;;21.62;76.99;99015.70;1764774;79;21145;-67
2022/09/30 10:27:29;;;;;;;5.83;4.80;;;;;;;21.77;76.09;99011.28;1822826;77;21024;-69
2022/09/30 10:30:03;;;;;;;8.70;4.75;;;;;;;21.91;75.48;99006.82;1822880;77;21086;-65
2022/09/30 10:32:31;;;;;;;6.40;4.95;;;;;;;22.08;74.38;99015.34;1764593;81;21598;-65
2022/09/30 10:35:17;;;;;;;8.08;4.53;;;;;;;22.18;74.08;99016.63;1823083;78;21204;-66
2022/09/30 10:37:53;;;;;;;5.33;4.83;;;;;;;22.23;72.50;99015.17;1764679;78;21116;-71
2022/09/30 10:40:25;;;;;;;5.22;3.83;;;;;;;22.24;72.00;99017.33;1797653;78;21075;-66
2022/09/30 10:42:51;;;;;;;6.83;4.20;;;;;;;22.27;70.38;99018.36;1822755;78;21039;-65
2022/09/30 10:45:32;;;;;;;11.60;5.33;;;;;;;22.26;69.50;99017.53;1821317;78;21075;-67
2022/09/30 10:47:58;;;;;;;14.78;5.00;;;;;;;22.25;69.29;99025.63;1812365;78;22051;-65
2022/09/30 10:50:26;;;;;;;9.05;5.50;;;;;;;22.23;70.23;99024.45;1743714;81;21221;-66
2022/09/30 10:52:58;;;;;;;10.98;5.80;;;;;;;22.23;71.07;99031.06;1798540;79;21048;-70
2022/09/30 10:55:32;;;;;;;13.37;5.33;;;;;;;22.24;71.51;99033.23;1782668;79;21531;-67
2022/09/30 10:58:24;;;;;;;7.53;5.15;;;;;;;22.24;71.92;99042.02;1783136;80;21551;-65
2022/09/30 11:01:05;;;;;;;10.50;5.08;;;;;;;22.27;72.33;99034.27;1763251;80;21008;-66
2022/09/30 11:04:10;;;;;;;7.45;5.35;;;;;;;22.38;71.94;99037.21;1808871;79;21212;-66
2022/09/30 11:06:43;;;;;;;6.22;4.97;;;;;;;22.56;71.87;99039.39;1773065;78;21011;-71
2022/09/30 11:09:34;;;;;;;8.53;4.80;;;;;;;22.81;70.29;99032.52;1814151;78;21027;-67
2022/09/30 11:12:34;;;;;;;4.97;4.40;;;;;;;22.98;69.74;99029.05;1814554;78;21086;-71
2022/09/30 11:15:23;;;;;;;5.40;4.08;;;;;;;23.13;68.23;99025.36;1765942;81;21064;-65
2022/09/30 11:18:03;;;;;;;10.32;4.83;;;;;;;23.24;67.11;99027.25;1814693;79;21303;-65
2022/09/30 11:20:38;;;;;;;12.82;4.97;;;;;;;23.26;66.32;99025.28;1814756;78;20977;-66
2022/09/30 11:23:22;;;;;;;6.50;4.30;;;;;;;23.27;66.43;99019.48;1814594;79;21027;-65
2022/09/30 11:25:58;;;;;;;10.48;4.37;;;;;;;23.30;66.26;99025.32;1814677;77;21083;-66
2022/09/30 11:28:49;;;;;;;6.62;3.92;;;;;;;23.30;65.35;99020.02;1815122;78;21016;-65
2022/09/30 11:31:40;;;;;;;3.70;3.35;;;;;;;23.26;64.52;99020.47;1814888;78;21103;-66
2022/09/30 11:34:22;;;;;;;6.37;3.95;;;;;;;23.17;63.90;99023.58;1763567;81;21012;-67
2022/09/30 11:36:55;;;;;;;5.20;3.83;;;;;;;23.09;63.40;99014.22;1814453;77;21405;-68
2022/09/30 11:39:43;;;;;;;11.80;6.30;;;;;;;23.03;63.84;99013.00;1812145;79;21012;-66
2022/09/30 11:42:34;;;;;;;6.00;4.03;;;;;;;23.02;64.57;99017.97;1812773;79;21035;-65
2022/09/30 11:45:29;;;;;;;7.17;3.33;;;;;;;23.03;63.96;99020.95;1815408;78;21401;-66
2022/09/30 11:48:13;;;;;;;7.10;3.20;;;;;;;23.00;62.54;99023.91;1805619;77;21098;-65
2022/09/30 11:51:05;;;;;;;3.52;2.50;;;;;;;23.00;61.68;99022.59;1813884;78;21043;-66
2022/09/30 11:53:54;;;;;;;11.22;3.67;;;;;;;22.97;60.73;99022.92;1815029;79;21098;-66
2022/09/30 11:57:05;;;;;;;3.40;3.10;;;;;;;22.93;60.75;99020.72;1812716;78;21167;-66
2022/09/30 11:59:50;;;;;;;3.33;2.60;;;;;;;22.91;60.69;99029.31;1815259;78;21527;-66
2022/09/30 12:02:49;;;;;;;3.42;2.92;;;;;;;22.89;60.08;99034.77;1810133;79;21497;-68